sensor_id;sensor_type;location;lat;lon;timestamp;pressure;altitude;pressure_sealevel;temperature;humidity
13314;BME280;6725;48.112;11.604;2023-07-22T00:02:16;94124.94;;;15.77;100.00
13314;BME280;6725;48.112;11.604;2023-07-22T00:04:41;94125.69;;;15.77;100.00
13314;BME280;6725;48.112;11.604;2023-07-22T00:07:06;94140.09;;;15.72;100.00
13314;BME280;6725;48.112;11.604;2023-07-22T00:09:32;94138.38;;;15.75;100.00
13314;BME280;6725;48.112;11.604;2023-07-22T00:11:59;94130.59;;;15.73;100.00
13314;BME280;6725;48.112;11.604;2023-07-22T00:14:24;94130.59;;;15.73;100.00
13314;BME280;6725;48.112;11.604;2023-07-22T00:16:50;94131.53;;;15.70;100.00
13314;BME280;6725;48.112;11.604;2023-07-22T00:19:15;94141.34;;;15.62;100.00
13314;BME280;6725;48.112;11.604;2023-07-22T00:21:40;94146.28;;;15.58;100.00
13314;BME280;6725;48.112;11.604;2023-07-22T00:24:06;94141.09;;;15.51;100.00
13314;BME280;6725;48.112;11.604;2023-07-22T00:26:31;94139.28;;;15.48;100.00
13314;BME280;6725;48.112;11.604;2023-07-22T00:28:56;94143.91;;;15.42;100.00
13314;BME280;6725;48.112;11.604;2023-07-22T00:31:22;94138.69;;;15.44;100.00
13314;BME280;6725;48.112;11.604;2023-07-22T00:33:47;94131.66;;;15.43;100.00
13314;BME280;6725;48.112;11.604;2023-07-22T00:36:12;94135.34;;;15.40;100.00
13314;BME280;6725;48.112;11.604;2023-07-22T00:38:38;94132.31;;;15.38;100.00
13314;BME280;6725;48.112;11.604;2023-07-22T00:41:05;94119.91;;;15.34;100.00
13314;BME280;6725;48.112;11.604;2023-07-22T00:43:30;94129.72;;;15.26;100.00
13314;BME280;6725;48.112;11.604;2023-07-22T00:45:56;94132.34;;;15.20;100.00
13314;BME280;6725;48.112;11.604;2023-07-22T00:48:22;94119.19;;;15.15;100.00
13314;BME280;6725;48.112;11.604;2023-07-22T00:50:47;94118.91;;;15.13;100.00
13314;BME280;6725;48.112;11.604;2023-07-22T00:53:13;94104.56;;;15.09;100.00
13314;BME280;6725;48.112;11.604;2023-07-22T00:55:39;94105.78;;;15.08;100.00
13314;BME280;6725;48.112;11.604;2023-07-22T00:58:07;94108.53;;;15.08;100.00
13314;BME280;6725;48.112;11.604;2023-07-22T01:00:32;94098.44;;;15.05;100.00
13314;BME280;6725;48.112;11.604;2023-07-22T01:02:58;94091.16;;;15.02;100.00
13314;BME280;6725;48.112;11.604;2023-07-22T01:05:25;94079.84;;;15.00;100.00
13314;BME280;6725;48.112;11.604;2023-07-22T01:07:51;94069.28;;;14.99;100.00
13314;BME280;6725;48.112;11.604;2023-07-22T01:10:18;94061.38;;;14.92;100.00
13314;BME280;6725;48.112;11.604;2023-07-22T01:12:44;94055.13;;;14.91;100.00
13314;BME280;6725;48.112;11.604;2023-07-22T01:15:10;94057.56;;;14.89;100.00
13314;BME280;6725;48.112;11.604;2023-07-22T01:17:37;94056.97;;;14.85;100.00
13314;BME280;6725;48.112;11.604;2023-07-22T01:20:03;94049.38;;;14.80;100.00
13314;BME280;6725;48.112;11.604;2023-07-22T01:22:29;94037.28;;;14.78;100.00
13314;BME280;6725;48.112;11.604;2023-07-22T01:24:55;94049.06;;;14.78;100.00
13314;BME280;6725;48.112;11.604;2023-07-22T01:27:21;94041.59;;;14.79;100.00
13314;BME280;6725;48.112;11.604;2023-07-22T01:29:46;94036.53;;;14.77;100.00
13314;BME280;6725;48.112;11.604;2023-07-22T01:32:11;94033.94;;;14.74;100.00
13314;BME280;6725;48.112;11.604;2023-07-22T01:34:37;94035.50;;;14.75;100.00
13314;BME280;6725;48.112;11.604;2023-07-22T01:37:02;94024.03;;;14.76;100.00
13314;BME280;6725;48.112;11.604;2023-07-22T01:39:29;94022.03;;;14.77;100.00
13314;BME280;6725;48.112;11.604;2023-07-22T01:41:55;94001.56;;;14.78;100.00
13314;BME280;6725;48.112;11.604;2023-07-22T01:44:20;93991.06;;;14.76;100.00
13314;BME280;6725;48.112;11.604;2023-07-22T01:46:45;93984.00;;;14.75;100.00
13314;BME280;6725;48.112;11.604;2023-07-22T01:49:12;93974.84;;;14.78;100.00
13314;BME280;6725;48.112;11.604;2023-07-22T01:51:38;93965.03;;;14.86;100.00
13314;BME280;6725;48.112;11.604;2023-07-22T01:54:04;93956.16;;;14.91;100.00
13314;BME280;6725;48.112;11.604;2023-07-22T01:56:30;93956.16;;;14.91;100.00
13314;BME280;6725;48.112;11.604;2023-07-22T01:58:55;93945.75;;;14.95;100.00
13314;BME280;6725;48.112;11.604;2023-07-22T02:01:20;93944.34;;;15.00;100.00
13314;BME280;6725;48.112;11.604;2023-07-22T02:03:46;93940.06;;;14.99;100.00
13314;BME280;6725;48.112;11.604;2023-07-22T02:06:11;93939.63;;;15.00;100.00
13314;BME280;6725;48.112;11.604;2023-07-22T02:08:37;93945.09;;;15.00;100.00
13314;BME280;6725;48.112;11.604;2023-07-22T02:11:07;93954.28;;;14.97;100.00
13314;BME280;6725;48.112;11.604;2023-07-22T02:13:34;93969.28;;;14.96;100.00
13314;BME280;6725;48.112;11.604;2023-07-22T02:16:01;93976.28;;;14.97;100.00
13314;BME280;6725;48.112;11.604;2023-07-22T02:18:27;93982.69;;;14.94;100.00
13314;BME280;6725;48.112;11.604;2023-07-22T02:20:53;93995.72;;;14.94;100.00
13314;BME280;6725;48.112;11.604;2023-07-22T02:23:18;94001.66;;;14.92;100.00
13314;BME280;6725;48.112;11.604;2023-07-22T02:25:44;94004.09;;;14.90;100.00
13314;BME280;6725;48.112;11.604;2023-07-22T02:28:13;93998.59;;;14.90;100.00
13314;BME280;6725;48.112;11.604;2023-07-22T02:30:39;93999.19;;;14.94;100.00
13314;BME280;6725;48.112;11.604;2023-07-22T02:33:05;94004.09;;;14.90;100.00
13314;BME280;6725;48.112;11.604;2023-07-22T02:35:30;94009.00;;;14.86;100.00
13314;BME280;6725;48.112;11.604;2023-07-22T02:37:56;94021.69;;;14.84;100.00
13314;BME280;6725;48.112;11.604;2023-07-22T02:40:21;94017.91;;;14.81;100.00
13314;BME280;6725;48.112;11.604;2023-07-22T02:42:46;94024.91;;;14.82;100.00
13314;BME280;6725;48.112;11.604;2023-07-22T02:45:12;94025.50;;;14.86;100.00
13314;BME280;6725;48.112;11.604;2023-07-22T02:47:38;94030.06;;;14.89;100.00
13314;BME280;6725;48.112;11.604;2023-07-22T02:50:04;94023.66;;;14.92;100.00
13314;BME280;6725;48.112;11.604;2023-07-22T02:52:30;94028.25;;;14.95;100.00
13314;BME280;6725;48.112;11.604;2023-07-22T02:57:30;94023.03;;;14.97;100.00
13314;BME280;6725;48.112;11.604;2023-07-22T02:59:56;94031.72;;;14.96;100.00
13314;BME280;6725;48.112;11.604;2023-07-22T03:02:21;94041.66;;;14.93;100.00
13314;BME280;6725;48.112;11.604;2023-07-22T03:04:47;94037.88;;;14.91;100.00
13314;BME280;6725;48.112;11.604;2023-07-22T03:07:12;94034.97;;;14.85;100.00
13314;BME280;6725;48.112;11.604;2023-07-22T03:09:37;94043.88;;;14.80;100.00
13314;BME280;6725;48.112;11.604;2023-07-22T03:12:03;94035.31;;;14.78;100.00
13314;BME280;6725;48.112;11.604;2023-07-22T03:14:28;94038.53;;;14.77;100.00
13314;BME280;6725;48.112;11.604;2023-07-22T03:16:54;94028.13;;;14.81;100.00
13314;BME280;6725;48.112;11.604;2023-07-22T03:19:19;94040.97;;;14.75;100.00
13314;BME280;6725;48.112;11.604;2023-07-22T03:21:44;94039.63;;;14.70;100.00
13314;BME280;6725;48.112;11.604;2023-07-22T03:24:10;94042.38;;;14.70;100.00
13314;BME280;6725;48.112;11.604;2023-07-22T03:26:35;94037.94;;;14.73;100.00
13314;BME280;6725;48.112;11.604;2023-07-22T03:29:01;94030.13;;;14.71;100.00
13314;BME280;6725;48.112;11.604;2023-07-22T03:31:26;94038.84;;;14.70;100.00
13314;BME280;6725;48.112;11.604;2023-07-22T03:33:51;94029.53;;;14.67;100.00
13314;BME280;6725;48.112;11.604;2023-07-22T03:36:17;94038.09;;;14.69;100.00
13314;BME280;6725;48.112;11.604;2023-07-22T03:38:43;94030.13;;;14.71;100.00
13314;BME280;6725;48.112;11.604;2023-07-22T03:41:08;94022.03;;;14.77;100.00
13314;BME280;6725;48.112;11.604;2023-07-22T03:43:33;94021.88;;;14.80;100.00
13314;BME280;6725;48.112;11.604;2023-07-22T03:45:59;94018.50;;;14.85;100.00
13314;BME280;6725;48.112;11.604;2023-07-22T03:48:24;94023.66;;;14.92;100.00
13314;BME280;6725;48.112;11.604;2023-07-22T03:50:49;94019.34;;;15.00;100.00
13314;BME280;6725;48.112;11.604;2023-07-22T03:53:15;94017.31;;;15.10;100.00
13314;BME280;6725;48.112;11.604;2023-07-22T03:55:41;94016.19;;;15.16;100.00
13314;BME280;6725;48.112;11.604;2023-07-22T03:58:06;94029.94;;;15.25;100.00
13314;BME280;6725;48.112;11.604;2023-07-22T04:00:31;94027.44;;;15.36;100.00
13314;BME280;6725;48.112;11.604;2023-07-22T04:02:57;94035.03;;;15.50;100.00
13314;BME280;6725;48.112;11.604;2023-07-22T04:05:22;94045.16;;;15.68;100.00
13314;BME280;6725;48.112;11.604;2023-07-22T04:07:47;94051.31;;;15.86;100.00
13314;BME280;6725;48.112;11.604;2023-07-22T04:10:13;94069.56;;;15.98;100.00
13314;BME280;6725;48.112;11.604;2023-07-22T04:12:38;94085.19;;;16.16;100.00
13314;BME280;6725;48.112;11.604;2023-07-22T04:15:04;94110.78;;;16.31;100.00
13314;BME280;6725;48.112;11.604;2023-07-22T04:17:30;94137.13;;;16.32;100.00
13314;BME280;6725;48.112;11.604;2023-07-22T04:19:56;94175.19;;;16.42;100.00
13314;BME280;6725;48.112;11.604;2023-07-22T04:22:21;94209.63;;;16.47;100.00
13314;BME280;6725;48.112;11.604;2023-07-22T04:24:47;94243.38;;;16.57;100.00
13314;BME280;6725;48.112;11.604;2023-07-22T04:27:14;94260.31;;;16.88;100.00
13314;BME280;6725;48.112;11.604;2023-07-22T04:29:40;94274.84;;;17.12;100.00
13314;BME280;6725;48.112;11.604;2023-07-22T04:32:07;94297.28;;;17.43;100.00
13314;BME280;6725;48.112;11.604;2023-07-22T04:34:33;94331.97;;;17.73;100.00
13314;BME280;6725;48.112;11.604;2023-07-22T04:36:59;94358.97;;;18.07;100.00
13314;BME280;6725;48.112;11.604;2023-07-22T04:39:25;94381.19;;;18.41;100.00
13314;BME280;6725;48.112;11.604;2023-07-22T04:41:50;94420.06;;;18.67;100.00
13314;BME280;6725;48.112;11.604;2023-07-22T04:44:16;94446.56;;;18.88;100.00
13314;BME280;6725;48.112;11.604;2023-07-22T04:46:42;94474.84;;;19.12;100.00
13314;BME280;6725;48.112;11.604;2023-07-22T04:49:08;94512.47;;;19.33;100.00
13314;BME280;6725;48.112;11.604;2023-07-22T04:51:33;94536.28;;;19.60;100.00
13314;BME280;6725;48.112;11.604;2023-07-22T04:53:59;94546.91;;;19.81;100.00
13314;BME280;6725;48.112;11.604;2023-07-22T04:56:24;94548.44;;;19.82;100.00
13314;BME280;6725;48.112;11.604;2023-07-22T04:58:49;94550.91;;;19.60;100.00
13314;BME280;6725;48.112;11.604;2023-07-22T05:01:15;94560.78;;;19.32;100.00
13314;BME280;6725;48.112;11.604;2023-07-22T05:03:40;94573.38;;;19.18;100.00
13314;BME280;6725;48.112;11.604;2023-07-22T05:06:06;94573.56;;;19.15;100.00
13314;BME280;6725;48.112;11.604;2023-07-22T05:08:34;94578.16;;;19.03;100.00
13314;BME280;6725;48.112;11.604;2023-07-22T05:10:59;94571.06;;;19.02;100.00
13314;BME280;6725;48.112;11.604;2023-07-22T05:13:25;94579.28;;;18.97;100.00
13314;BME280;6725;48.112;11.604;2023-07-22T05:15:50;94574.72;;;18.94;100.00
13314;BME280;6725;48.112;11.604;2023-07-22T05:18:16;94564.50;;;19.00;100.00
13314;BME280;6725;48.112;11.604;2023-07-22T05:20:41;94572.03;;;19.14;100.00
13314;BME280;6725;48.112;11.604;2023-07-22T05:23:07;94571.94;;;19.23;100.00
13314;BME280;6725;48.112;11.604;2023-07-22T05:25:32;94576.44;;;19.35;100.00
13314;BME280;6725;48.112;11.604;2023-07-22T05:27:58;94577.09;;;19.44;100.00
13314;BME280;6725;48.112;11.604;2023-07-22T05:30:23;94575.47;;;19.23;100.00
13314;BME280;6725;48.112;11.604;2023-07-22T05:32:51;94574.34;;;19.15;100.00
13314;BME280;6725;48.112;11.604;2023-07-22T05:35:17;94575.00;;;19.25;100.00
13314;BME280;6725;48.112;11.604;2023-07-22T05:37:42;94572.25;;;19.25;100.00
13314;BME280;6725;48.112;11.604;2023-07-22T05:40:08;94568.03;;;19.15;100.00
13314;BME280;6725;48.112;11.604;2023-07-22T05:42:34;94572.41;;;19.07;100.00
13314;BME280;6725;48.112;11.604;2023-07-22T05:45:00;94571.94;;;19.08;100.00
13314;BME280;6725;48.112;11.604;2023-07-22T05:47:25;94577.38;;;19.17;100.00
13314;BME280;6725;48.112;11.604;2023-07-22T05:49:50;94580.81;;;19.12;100.00
13314;BME280;6725;48.112;11.604;2023-07-22T05:52:16;94580.63;;;19.16;100.00
13314;BME280;6725;48.112;11.604;2023-07-22T05:54:42;94587.50;;;19.06;100.00
13314;BME280;6725;48.112;11.604;2023-07-22T05:57:07;94583.72;;;19.32;100.00
13314;BME280;6725;48.112;11.604;2023-07-22T05:59:33;94551.31;;;19.73;100.00
13314;BME280;6725;48.112;11.604;2023-07-22T06:02:01;94512.97;;;19.86;100.00
13314;BME280;6725;48.112;11.604;2023-07-22T06:04:28;94490.44;;;19.99;100.00
13314;BME280;6725;48.112;11.604;2023-07-22T06:06:53;94467.22;;;20.16;100.00
13314;BME280;6725;48.112;11.604;2023-07-22T06:09:18;94463.53;;;20.25;100.00
13314;BME280;6725;48.112;11.604;2023-07-22T06:11:45;94465.56;;;20.50;100.00
13314;BME280;6725;48.112;11.604;2023-07-22T06:14:10;94470.38;;;20.80;100.00
13314;BME280;6725;48.112;11.604;2023-07-22T06:16:35;94485.44;;;21.30;100.00
13314;BME280;6725;48.112;11.604;2023-07-22T06:19:01;94519.69;;;21.47;100.00
13314;BME280;6725;48.112;11.604;2023-07-22T06:21:26;94558.84;;;21.49;100.00
13314;BME280;6725;48.112;11.604;2023-07-22T06:23:51;94561.00;;;21.65;100.00
13314;BME280;6725;48.112;11.604;2023-07-22T06:26:17;94603.91;;;22.37;100.00
13314;BME280;6725;48.112;11.604;2023-07-22T06:28:42;94680.38;;;23.98;100.00
13314;BME280;6725;48.112;11.604;2023-07-22T06:31:08;94950.00;;;25.20;100.00
13314;BME280;6725;48.112;11.604;2023-07-22T06:33:33;95286.81;;;25.78;100.00
13314;BME280;6725;48.112;11.604;2023-07-22T06:35:58;95351.22;;;25.89;100.00
13314;BME280;6725;48.112;11.604;2023-07-22T06:38:24;95369.94;;;25.61;100.00
13314;BME280;6725;48.112;11.604;2023-07-22T06:40:52;95379.38;;;24.90;100.00
13314;BME280;6725;48.112;11.604;2023-07-22T06:43:17;95363.69;;;24.36;100.00
13314;BME280;6725;48.112;11.604;2023-07-22T06:45:43;95368.38;;;23.79;100.00
13314;BME280;6725;48.112;11.604;2023-07-22T06:48:08;95366.97;;;23.69;100.00
13314;BME280;6725;48.112;11.604;2023-07-22T06:50:33;95366.84;;;23.58;100.00
13314;BME280;6725;48.112;11.604;2023-07-22T06:52:59;95377.28;;;23.43;100.00
13314;BME280;6725;48.112;11.604;2023-07-22T06:55:24;95378.25;;;23.40;100.00
13314;BME280;6725;48.112;11.604;2023-07-22T06:57:49;95382.75;;;23.52;100.00
13314;BME280;6725;48.112;11.604;2023-07-22T07:00:15;95386.38;;;23.78;100.00
13314;BME280;6725;48.112;11.604;2023-07-22T07:02:41;95386.88;;;24.22;100.00
13314;BME280;6725;48.112;11.604;2023-07-22T07:05:06;95385.66;;;24.03;100.00
13314;BME280;6725;48.112;11.604;2023-07-22T07:07:32;95391.94;;;24.18;100.00
13314;BME280;6725;48.112;11.604;2023-07-22T07:09:57;95392.41;;;24.16;100.00
13314;BME280;6725;48.112;11.604;2023-07-22T07:12:23;95400.59;;;24.00;100.00
13314;BME280;6725;48.112;11.604;2023-07-22T07:14:53;95405.06;;;23.72;100.00
13314;BME280;6725;48.112;11.604;2023-07-22T07:17:18;95410.63;;;23.52;100.00
13314;BME280;6725;48.112;11.604;2023-07-22T07:19:43;95410.34;;;23.50;100.00
13314;BME280;6725;48.112;11.604;2023-07-22T07:22:09;95412.16;;;23.73;100.00
13314;BME280;6725;48.112;11.604;2023-07-22T07:24:34;95416.63;;;24.05;100.00
13314;BME280;6725;48.112;11.604;2023-07-22T07:26:59;95409.78;;;24.26;100.00
13314;BME280;6725;48.112;11.604;2023-07-22T07:29:25;95412.94;;;25.26;100.00
13314;BME280;6725;48.112;11.604;2023-07-22T07:31:50;95412.31;;;26.87;100.00
13314;BME280;6725;48.112;11.604;2023-07-22T07:34:15;95424.03;;;26.91;100.00
13314;BME280;6725;48.112;11.604;2023-07-22T07:36:41;95426.53;;;26.56;100.00
13314;BME280;6725;48.112;11.604;2023-07-22T07:39:06;95429.91;;;26.66;100.00
13314;BME280;6725;48.112;11.604;2023-07-22T07:41:32;95426.09;;;26.96;100.00
13314;BME280;6725;48.112;11.604;2023-07-22T07:43:58;95435.28;;;28.31;100.00
13314;BME280;6725;48.112;11.604;2023-07-22T07:46:26;95427.72;;;29.85;89.20
13314;BME280;6725;48.112;11.604;2023-07-22T07:48:54;95426.06;;;29.95;84.98
13314;BME280;6725;48.112;11.604;2023-07-22T07:51:22;95423.44;;;30.45;82.50
13314;BME280;6725;48.112;11.604;2023-07-22T07:53:47;95431.59;;;30.06;80.47
13314;BME280;6725;48.112;11.604;2023-07-22T07:56:13;95435.53;;;30.40;76.51
13314;BME280;6725;48.112;11.604;2023-07-22T07:58:39;95437.47;;;30.87;73.92
13314;BME280;6725;48.112;11.604;2023-07-22T08:01:05;95436.78;;;32.54;68.07
13314;BME280;6725;48.112;11.604;2023-07-22T08:03:31;95435.94;;;31.37;67.19
13314;BME280;6725;48.112;11.604;2023-07-22T08:05:57;95433.34;;;30.70;71.30
13314;BME280;6725;48.112;11.604;2023-07-22T08:08:22;95430.66;;;31.72;68.08
13314;BME280;6725;48.112;11.604;2023-07-22T08:11:03;95434.84;;;32.49;63.89
13314;BME280;6725;48.112;11.604;2023-07-22T08:13:29;95434.81;;;33.29;57.55
13314;BME280;6725;48.112;11.604;2023-07-22T08:15:57;95434.63;;;32.34;58.50
13314;BME280;6725;48.112;11.604;2023-07-22T08:18:23;95436.38;;;32.24;60.81
13314;BME280;6725;48.112;11.604;2023-07-22T08:20:49;95437.88;;;32.25;61.52
13314;BME280;6725;48.112;11.604;2023-07-22T08:23:14;95436.66;;;33.06;58.85
13314;BME280;6725;48.112;11.604;2023-07-22T08:25:40;95439.63;;;33.01;57.11
13314;BME280;6725;48.112;11.604;2023-07-22T08:28:05;95436.84;;;32.88;55.95
13314;BME280;6725;48.112;11.604;2023-07-22T08:30:30;95431.53;;;33.38;52.43
13314;BME280;6725;48.112;11.604;2023-07-22T08:32:56;95442.88;;;33.25;54.86
13314;BME280;6725;48.112;11.604;2023-07-22T08:35:21;95433.41;;;33.56;52.68
13314;BME280;6725;48.112;11.604;2023-07-22T08:37:47;95436.97;;;33.77;50.89
13314;BME280;6725;48.112;11.604;2023-07-22T08:40:13;95435.94;;;34.16;50.52
13314;BME280;6725;48.112;11.604;2023-07-22T08:42:40;95444.31;;;33.52;51.43
13314;BME280;6725;48.112;11.604;2023-07-22T08:45:09;95434.38;;;33.38;54.54
13314;BME280;6725;48.112;11.604;2023-07-22T08:47:37;95444.47;;;33.13;52.16
13314;BME280;6725;48.112;11.604;2023-07-22T08:50:05;95424.56;;;32.72;54.84
13314;BME280;6725;48.112;11.604;2023-07-22T08:52:33;95434.09;;;33.49;48.37
13314;BME280;6725;48.112;11.604;2023-07-22T08:54:59;95426.50;;;34.49;43.64
13314;BME280;6725;48.112;11.604;2023-07-22T08:57:27;95423.44;;;34.47;44.48
13314;BME280;6725;48.112;11.604;2023-07-22T08:59:54;95427.28;;;35.08;43.68
13314;BME280;6725;48.112;11.604;2023-07-22T09:02:20;95433.38;;;34.69;43.79
13314;BME280;6725;48.112;11.604;2023-07-22T09:04:46;95428.03;;;33.94;45.38
13314;BME280;6725;48.112;11.604;2023-07-22T09:07:12;95439.13;;;34.13;42.81
13314;BME280;6725;48.112;11.604;2023-07-22T09:09:39;95434.06;;;33.91;43.34
13314;BME280;6725;48.112;11.604;2023-07-22T09:12:05;95426.13;;;33.48;44.52
13314;BME280;6725;48.112;11.604;2023-07-22T09:14:31;95429.91;;;33.92;45.35
13314;BME280;6725;48.112;11.604;2023-07-22T09:16:59;95418.34;;;34.89;40.90
13314;BME280;6725;48.112;11.604;2023-07-22T09:19:24;95427.50;;;35.25;39.88
13314;BME280;6725;48.112;11.604;2023-07-22T09:21:50;95421.22;;;35.04;40.28
13314;BME280;6725;48.112;11.604;2023-07-22T09:24:23;95420.06;;;34.21;42.29
13314;BME280;6725;48.112;11.604;2023-07-22T09:26:50;95425.56;;;33.70;41.54
13314;BME280;6725;48.112;11.604;2023-07-22T09:29:15;95421.28;;;34.05;40.42
13314;BME280;6725;48.112;11.604;2023-07-22T09:31:53;95414.22;;;34.54;37.32
13314;BME280;6725;48.112;11.604;2023-07-22T09:34:19;95418.31;;;33.61;41.03
13314;BME280;6725;48.112;11.604;2023-07-22T09:36:56;95409.63;;;34.44;41.02
13314;BME280;6725;48.112;11.604;2023-07-22T09:39:24;95413.03;;;34.50;38.99
13314;BME280;6725;48.112;11.604;2023-07-22T09:41:50;95421.06;;;33.74;38.57
13314;BME280;6725;48.112;11.604;2023-07-22T09:44:17;95409.16;;;34.32;38.97
13314;BME280;6725;48.112;11.604;2023-07-22T09:46:49;95407.25;;;33.50;40.81
13314;BME280;6725;48.112;11.604;2023-07-22T09:49:16;95404.19;;;33.90;41.45
13314;BME280;6725;48.112;11.604;2023-07-22T09:51:42;95408.38;;;33.47;47.60
13314;BME280;6725;48.112;11.604;2023-07-22T09:54:08;95398.38;;;34.31;43.58
13314;BME280;6725;48.112;11.604;2023-07-22T09:56:44;95406.34;;;33.76;45.24
13314;BME280;6725;48.112;11.604;2023-07-22T09:59:10;95400.63;;;33.97;43.68
13314;BME280;6725;48.112;11.604;2023-07-22T10:01:38;95406.16;;;33.53;42.27
13314;BME280;6725;48.112;11.604;2023-07-22T10:04:05;95408.94;;;32.58;47.07
13314;BME280;6725;48.112;11.604;2023-07-22T10:06:32;95397.69;;;32.99;46.36
13314;BME280;6725;48.112;11.604;2023-07-22T10:09:02;95402.75;;;32.80;46.27
13314;BME280;6725;48.112;11.604;2023-07-22T10:11:29;95395.22;;;33.16;43.86
13314;BME280;6725;48.112;11.604;2023-07-22T10:13:55;95397.72;;;33.40;44.63
13314;BME280;6725;48.112;11.604;2023-07-22T10:16:22;95385.44;;;34.15;40.69
13314;BME280;6725;48.112;11.604;2023-07-22T10:18:48;95387.31;;;33.84;39.74
13314;BME280;6725;48.112;11.604;2023-07-22T10:21:14;95391.19;;;33.73;41.63
13314;BME280;6725;48.112;11.604;2023-07-22T10:23:40;95389.56;;;33.57;42.64
13314;BME280;6725;48.112;11.604;2023-07-22T10:26:06;95383.41;;;31.60;46.68
13314;BME280;6725;48.112;11.604;2023-07-22T10:28:32;95383.63;;;30.67;51.59
13314;BME280;6725;48.112;11.604;2023-07-22T10:30:59;95382.19;;;31.55;50.16
13314;BME280;6725;48.112;11.604;2023-07-22T10:33:25;95380.94;;;30.93;49.77
13314;BME280;6725;48.112;11.604;2023-07-22T10:38:29;95379.13;;;29.55;55.94
13314;BME280;6725;48.112;11.604;2023-07-22T10:40:55;95384.16;;;29.38;56.28
13314;BME280;6725;48.112;11.604;2023-07-22T10:43:26;95380.19;;;29.28;58.63
13314;BME280;6725;48.112;11.604;2023-07-22T10:45:56;95381.09;;;28.77;58.93
13314;BME280;6725;48.112;11.604;2023-07-22T10:48:25;95381.56;;;29.69;56.11
13314;BME280;6725;48.112;11.604;2023-07-22T10:50:53;95373.59;;;29.73;53.16
13314;BME280;6725;48.112;11.604;2023-07-22T11:16:57;95344.41;;;32.90;41.74
13314;BME280;6725;48.112;11.604;2023-07-22T11:19:24;95352.59;;;32.47;43.74
13314;BME280;6725;48.112;11.604;2023-07-22T11:21:51;95342.38;;;32.98;41.45
13314;BME280;6725;48.112;11.604;2023-07-22T11:24:18;95334.94;;;32.54;40.73
13314;BME280;6725;48.112;11.604;2023-07-22T11:26:45;95336.69;;;32.78;41.32
13314;BME280;6725;48.112;11.604;2023-07-22T11:29:11;95325.91;;;31.44;44.42
13314;BME280;6725;48.112;11.604;2023-07-22T11:31:40;95320.63;;;31.09;44.53
13314;BME280;6725;48.112;11.604;2023-07-22T11:34:18;95321.94;;;31.08;43.98
13314;BME280;6725;48.112;11.604;2023-07-22T11:36:46;95323.09;;;31.83;44.70
13314;BME280;6725;48.112;11.604;2023-07-22T11:39:16;95327.34;;;32.49;40.32
13314;BME280;6725;48.112;11.604;2023-07-22T11:41:43;95322.00;;;32.46;41.39
13314;BME280;6725;48.112;11.604;2023-07-22T11:44:10;95311.78;;;32.09;41.14
13314;BME280;6725;48.112;11.604;2023-07-22T11:46:59;95300.16;;;31.61;42.86
13314;BME280;6725;48.112;11.604;2023-07-22T11:51:50;95308.84;;;31.63;42.72
13314;BME280;6725;48.112;11.604;2023-07-22T11:54:16;95297.66;;;31.70;42.62
13314;BME280;6725;48.112;11.604;2023-07-22T11:56:42;95299.00;;;30.67;45.91
13314;BME280;6725;48.112;11.604;2023-07-22T11:59:07;95296.09;;;30.41;48.81
13314;BME280;6725;48.112;11.604;2023-07-22T12:01:34;95288.09;;;30.45;49.42
13314;BME280;6725;48.112;11.604;2023-07-22T12:03:59;95298.53;;;30.13;51.39
13314;BME280;6725;48.112;11.604;2023-07-22T12:06:26;95285.81;;;29.88;51.84
13314;BME280;6725;48.112;11.604;2023-07-22T12:08:52;95275.88;;;29.63;50.05
13314;BME280;6725;48.112;11.604;2023-07-22T12:13:43;95268.78;;;29.14;50.27
13314;BME280;6725;48.112;11.604;2023-07-22T12:16:21;95267.84;;;29.06;55.01
13314;BME280;6725;48.112;11.604;2023-07-22T12:18:47;95267.44;;;28.91;52.42
13314;BME280;6725;48.112;11.604;2023-07-22T12:21:13;95272.31;;;28.61;54.59
13314;BME280;6725;48.112;11.604;2023-07-22T12:23:39;95267.38;;;29.02;52.80
13314;BME280;6725;48.112;11.604;2023-07-22T12:26:05;95261.47;;;28.76;51.64
13314;BME280;6725;48.112;11.604;2023-07-22T12:28:31;95269.28;;;28.59;56.20
13314;BME280;6725;48.112;11.604;2023-07-22T12:30:56;95264.34;;;28.70;57.49
13314;BME280;6725;48.112;11.604;2023-07-22T12:33:23;95262.41;;;28.84;55.11
13314;BME280;6725;48.112;11.604;2023-07-22T12:35:49;95262.22;;;28.47;55.68
13314;BME280;6725;48.112;11.604;2023-07-22T12:38:15;95272.06;;;28.23;56.42
13314;BME280;6725;48.112;11.604;2023-07-22T12:40:40;95261.00;;;28.37;57.39
13314;BME280;6725;48.112;11.604;2023-07-22T12:43:05;95258.81;;;28.59;57.14
13314;BME280;6725;48.112;11.604;2023-07-22T12:45:31;95253.56;;;28.45;58.19
13314;BME280;6725;48.112;11.604;2023-07-22T12:47:56;95255.84;;;28.76;56.08
13314;BME280;6725;48.112;11.604;2023-07-22T12:50:21;95258.59;;;28.81;55.41
13314;BME280;6725;48.112;11.604;2023-07-22T12:52:47;95256.13;;;28.43;56.55
13314;BME280;6725;48.112;11.604;2023-07-22T12:55:13;95252.38;;;28.29;56.93
13314;BME280;6725;48.112;11.604;2023-07-22T12:57:38;95258.28;;;28.25;55.26
13314;BME280;6725;48.112;11.604;2023-07-22T13:00:04;95254.56;;;28.42;56.31
13314;BME280;6725;48.112;11.604;2023-07-22T13:02:37;95251.38;;;28.26;57.99
13314;BME280;6725;48.112;11.604;2023-07-22T13:05:03;95254.41;;;28.64;55.63
13314;BME280;6725;48.112;11.604;2023-07-22T13:07:28;95251.38;;;28.62;53.78
13314;BME280;6725;48.112;11.604;2023-07-22T13:09:53;95239.66;;;28.58;54.01
13314;BME280;6725;48.112;11.604;2023-07-22T13:12:21;95244.91;;;28.67;55.64
13314;BME280;6725;48.112;11.604;2023-07-22T13:14:47;95245.28;;;28.58;54.10
13314;BME280;6725;48.112;11.604;2023-07-22T13:17:12;95238.41;;;28.53;55.00
13314;BME280;6725;48.112;11.604;2023-07-22T13:19:38;95235.81;;;28.55;55.04
13314;BME280;6725;48.112;11.604;2023-07-22T13:22:03;95241.63;;;28.63;55.75
13314;BME280;6725;48.112;11.604;2023-07-22T13:24:29;95230.38;;;28.63;55.96